sensor_id;sensor_type;location;lat;lon;timestamp;temperature;humidity
11934;DHT22;6026;48.784;9.198;2024-01-15T00:02:15;-1.00;99.90
11934;DHT22;6026;48.784;9.198;2024-01-15T00:04:41;-1.00;99.90
11934;DHT22;6026;48.784;9.198;2024-01-15T00:07:07;-1.00;99.90
11934;DHT22;6026;48.784;9.198;2024-01-15T00:09:33;-1.00;99.90
11934;DHT22;6026;48.784;9.198;2024-01-15T00:12:00;-1.00;99.90
11934;DHT22;6026;48.784;9.198;2024-01-15T00:14:26;-1.00;99.90
11934;DHT22;6026;48.784;9.198;2024-01-15T00:16:52;-1.10;99.90
11934;DHT22;6026;48.784;9.198;2024-01-15T00:19:21;-1.10;99.90
11934;DHT22;6026;48.784;9.198;2024-01-15T00:21:47;-1.10;99.90
11934;DHT22;6026;48.784;9.198;2024-01-15T00:24:13;-1.20;99.90
11934;DHT22;6026;48.784;9.198;2024-01-15T00:26:39;-1.30;99.90
11934;DHT22;6026;48.784;9.198;2024-01-15T00:29:04;-1.30;99.90
11934;DHT22;6026;48.784;9.198;2024-01-15T00:31:31;-1.30;99.90
11934;DHT22;6026;48.784;9.198;2024-01-15T00:33:57;-1.40;99.90
11934;DHT22;6026;48.784;9.198;2024-01-15T00:36:25;-1.50;99.90
11934;DHT22;6026;48.784;9.198;2024-01-15T00:38:51;-1.50;99.90
11934;DHT22;6026;48.784;9.198;2024-01-15T00:41:17;-1.50;99.90
11934;DHT22;6026;48.784;9.198;2024-01-15T00:43:44;-1.40;99.90
11934;DHT22;6026;48.784;9.198;2024-01-15T00:46:10;-1.40;99.90
11934;DHT22;6026;48.784;9.198;2024-01-15T00:48:36;-1.50;99.90
11934;DHT22;6026;48.784;9.198;2024-01-15T00:51:02;-1.60;99.90
11934;DHT22;6026;48.784;9.198;2024-01-15T00:53:27;-1.60;99.90
11934;DHT22;6026;48.784;9.198;2024-01-15T00:55:53;-1.60;99.90
11934;DHT22;6026;48.784;9.198;2024-01-15T00:58:19;-1.70;99.90
11934;DHT22;6026;48.784;9.198;2024-01-15T01:00:44;-1.60;99.90
11934;DHT22;6026;48.784;9.198;2024-01-15T01:03:10;-1.50;99.90
11934;DHT22;6026;48.784;9.198;2024-01-15T01:05:35;-1.60;99.90
11934;DHT22;6026;48.784;9.198;2024-01-15T01:08:01;-1.50;99.90
11934;DHT22;6026;48.784;9.198;2024-01-15T01:10:27;-1.50;99.90
11934;DHT22;6026;48.784;9.198;2024-01-15T01:12:53;-1.40;99.90
11934;DHT22;6026;48.784;9.198;2024-01-15T01:15:18;-1.50;99.90
11934;DHT22;6026;48.784;9.198;2024-01-15T01:17:44;-1.40;99.90
11934;DHT22;6026;48.784;9.198;2024-01-15T01:20:10;-1.40;99.90
11934;DHT22;6026;48.784;9.198;2024-01-15T01:22:36;-1.40;99.90
11934;DHT22;6026;48.784;9.198;2024-01-15T01:25:02;-1.30;99.90
11934;DHT22;6026;48.784;9.198;2024-01-15T01:27:28;-1.30;99.90
11934;DHT22;6026;48.784;9.198;2024-01-15T01:29:54;-1.30;99.90
11934;DHT22;6026;48.784;9.198;2024-01-15T01:32:19;-1.10;99.90
11934;DHT22;6026;48.784;9.198;2024-01-15T01:34:45;-1.10;99.90
11934;DHT22;6026;48.784;9.198;2024-01-15T01:37:11;-1.10;99.90
11934;DHT22;6026;48.784;9.198;2024-01-15T01:39:40;-1.10;99.90
11934;DHT22;6026;48.784;9.198;2024-01-15T01:42:06;-1.10;99.90
11934;DHT22;6026;48.784;9.198;2024-01-15T01:44:32;-1.10;99.90
11934;DHT22;6026;48.784;9.198;2024-01-15T01:46:59;-1.00;99.90
11934;DHT22;6026;48.784;9.198;2024-01-15T01:49:25;-0.90;99.90
11934;DHT22;6026;48.784;9.198;2024-01-15T01:51:51;-1.00;99.90
11934;DHT22;6026;48.784;9.198;2024-01-15T01:54:18;-0.90;99.90
11934;DHT22;6026;48.784;9.198;2024-01-15T01:56:44;-0.90;99.90
11934;DHT22;6026;48.784;9.198;2024-01-15T01:59:11;-0.90;99.90
11934;DHT22;6026;48.784;9.198;2024-01-15T02:01:37;-0.80;99.90
11934;DHT22;6026;48.784;9.198;2024-01-15T02:04:03;-0.80;99.90
11934;DHT22;6026;48.784;9.198;2024-01-15T02:06:29;-0.80;99.90
11934;DHT22;6026;48.784;9.198;2024-01-15T02:08:55;-0.80;99.90
11934;DHT22;6026;48.784;9.198;2024-01-15T02:11:21;-0.70;99.90
11934;DHT22;6026;48.784;9.198;2024-01-15T02:13:47;-0.70;99.90
11934;DHT22;6026;48.784;9.198;2024-01-15T02:16:13;-0.80;99.90
11934;DHT22;6026;48.784;9.198;2024-01-15T02:18:45;-0.80;99.90
11934;DHT22;6026;48.784;9.198;2024-01-15T02:21:11;-0.80;99.90
11934;DHT22;6026;48.784;9.198;2024-01-15T02:23:37;-0.90;99.90
11934;DHT22;6026;48.784;9.198;2024-01-15T02:26:04;-0.80;99.90
11934;DHT22;6026;48.784;9.198;2024-01-15T02:28:30;-0.90;99.90
11934;DHT22;6026;48.784;9.198;2024-01-15T02:30:56;-0.90;99.90
11934;DHT22;6026;48.784;9.198;2024-01-15T02:33:22;-0.90;99.90
11934;DHT22;6026;48.784;9.198;2024-01-15T02:35:47;-1.00;99.90
11934;DHT22;6026;48.784;9.198;2024-01-15T02:38:15;-1.00;99.90
11934;DHT22;6026;48.784;9.198;2024-01-15T02:40:42;-1.00;99.90
11934;DHT22;6026;48.784;9.198;2024-01-15T02:43:08;-1.00;99.90
11934;DHT22;6026;48.784;9.198;2024-01-15T02:45:34;-1.10;99.90
11934;DHT22;6026;48.784;9.198;2024-01-15T02:47:59;-1.10;99.90
11934;DHT22;6026;48.784;9.198;2024-01-15T02:50:25;-1.20;99.90
11934;DHT22;6026;48.784;9.198;2024-01-15T02:52:50;-1.20;99.90
11934;DHT22;6026;48.784;9.198;2024-01-15T02:55:16;-1.20;99.90
11934;DHT22;6026;48.784;9.198;2024-01-15T02:57:41;-1.20;99.90
11934;DHT22;6026;48.784;9.198;2024-01-15T03:00:07;-1.20;99.90
11934;DHT22;6026;48.784;9.198;2024-01-15T03:02:36;-1.30;99.90
11934;DHT22;6026;48.784;9.198;2024-01-15T03:05:02;-1.30;99.90
11934;DHT22;6026;48.784;9.198;2024-01-15T03:07:28;-1.40;99.90
11934;DHT22;6026;48.784;9.198;2024-01-15T03:09:54;-1.40;99.90
11934;DHT22;6026;48.784;9.198;2024-01-15T03:12:19;-1.40;99.90
11934;DHT22;6026;48.784;9.198;2024-01-15T03:14:45;-1.30;99.90
11934;DHT22;6026;48.784;9.198;2024-01-15T03:17:10;-1.40;99.90
11934;DHT22;6026;48.784;9.198;2024-01-15T03:19:37;-1.40;99.90
11934;DHT22;6026;48.784;9.198;2024-01-15T03:22:03;-1.50;99.90
11934;DHT22;6026;48.784;9.198;2024-01-15T03:24:29;-1.50;99.90
11934;DHT22;6026;48.784;9.198;2024-01-15T03:26:55;-1.50;99.90
11934;DHT22;6026;48.784;9.198;2024-01-15T03:29:20;-1.40;99.90
11934;DHT22;6026;48.784;9.198;2024-01-15T03:31:46;-1.40;99.90
11934;DHT22;6026;48.784;9.198;2024-01-15T03:34:11;-1.40;99.90
11934;DHT22;6026;48.784;9.198;2024-01-15T03:36:37;-1.40;99.90
11934;DHT22;6026;48.784;9.198;2024-01-15T03:39:02;-1.40;99.90
11934;DHT22;6026;48.784;9.198;2024-01-15T03:41:28;-1.30;99.90
11934;DHT22;6026;48.784;9.198;2024-01-15T03:43:53;-1.40;99.90
11934;DHT22;6026;48.784;9.198;2024-01-15T03:46:19;-1.50;99.90
11934;DHT22;6026;48.784;9.198;2024-01-15T03:48:45;-1.50;99.90
11934;DHT22;6026;48.784;9.198;2024-01-15T03:51:10;-1.50;99.90
11934;DHT22;6026;48.784;9.198;2024-01-15T03:53:37;-1.60;99.90
11934;DHT22;6026;48.784;9.198;2024-01-15T03:56:03;-1.60;99.90
11934;DHT22;6026;48.784;9.198;2024-01-15T03:58:29;-1.60;99.90
11934;DHT22;6026;48.784;9.198;2024-01-15T04:00:54;-1.60;99.90
11934;DHT22;6026;48.784;9.198;2024-01-15T04:03:20;-1.60;99.90
11934;DHT22;6026;48.784;9.198;2024-01-15T04:05:45;-1.60;99.90
11934;DHT22;6026;48.784;9.198;2024-01-15T04:08:11;-1.50;99.90
11934;DHT22;6026;48.784;9.198;2024-01-15T04:10:37;-1.60;99.90
11934;DHT22;6026;48.784;9.198;2024-01-15T04:13:02;-1.50;99.90
11934;DHT22;6026;48.784;9.198;2024-01-15T04:15:29;-1.30;99.90
11934;DHT22;6026;48.784;9.198;2024-01-15T04:17:54;-1.40;99.90
11934;DHT22;6026;48.784;9.198;2024-01-15T04:20:20;-1.10;99.90
11934;DHT22;6026;48.784;9.198;2024-01-15T04:22:45;-1.00;99.90
11934;DHT22;6026;48.784;9.198;2024-01-15T04:25:11;-1.00;99.90
11934;DHT22;6026;48.784;9.198;2024-01-15T04:27:36;-1.10;99.90
11934;DHT22;6026;48.784;9.198;2024-01-15T04:30:02;-1.10;99.90
11934;DHT22;6026;48.784;9.198;2024-01-15T04:32:27;-0.90;99.90
11934;DHT22;6026;48.784;9.198;2024-01-15T04:34:54;-0.80;99.90
11934;DHT22;6026;48.784;9.198;2024-01-15T04:37:20;-0.80;99.90
11934;DHT22;6026;48.784;9.198;2024-01-15T04:39:46;-0.60;99.90
11934;DHT22;6026;48.784;9.198;2024-01-15T04:42:11;-0.50;99.90
11934;DHT22;6026;48.784;9.198;2024-01-15T04:44:37;-0.40;99.90
11934;DHT22;6026;48.784;9.198;2024-01-15T04:47:02;-0.50;99.90
11934;DHT22;6026;48.784;9.198;2024-01-15T04:49:28;-0.50;99.90
11934;DHT22;6026;48.784;9.198;2024-01-15T04:51:55;-0.40;99.90
11934;DHT22;6026;48.784;9.198;2024-01-15T04:54:20;-0.30;99.90
11934;DHT22;6026;48.784;9.198;2024-01-15T04:56:46;-0.30;99.90
11934;DHT22;6026;48.784;9.198;2024-01-15T04:59:13;-0.20;99.90
11934;DHT22;6026;48.784;9.198;2024-01-15T05:01:39;-0.20;99.90
11934;DHT22;6026;48.784;9.198;2024-01-15T05:04:05;-0.20;99.90
11934;DHT22;6026;48.784;9.198;2024-01-15T05:06:30;-0.10;99.90
11934;DHT22;6026;48.784;9.198;2024-01-15T05:08:56;-0.20;99.90
11934;DHT22;6026;48.784;9.198;2024-01-15T05:11:22;-0.20;99.90
11934;DHT22;6026;48.784;9.198;2024-01-15T05:13:48;-0.20;99.90
11934;DHT22;6026;48.784;9.198;2024-01-15T05:16:14;-0.20;99.90
11934;DHT22;6026;48.784;9.198;2024-01-15T05:18:39;-0.10;99.90
11934;DHT22;6026;48.784;9.198;2024-01-15T05:21:05;-0.10;99.90
11934;DHT22;6026;48.784;9.198;2024-01-15T05:23:34;-0.20;99.90
11934;DHT22;6026;48.784;9.198;2024-01-15T05:25:59;-0.20;99.90
11934;DHT22;6026;48.784;9.198;2024-01-15T05:28:25;-0.10;99.90
11934;DHT22;6026;48.784;9.198;2024-01-15T05:30:51;-0.10;99.90
11934;DHT22;6026;48.784;9.198;2024-01-15T05:33:17;-0.10;99.90
11934;DHT22;6026;48.784;9.198;2024-01-15T05:35:43;-0.10;99.90
11934;DHT22;6026;48.784;9.198;2024-01-15T05:38:09;-0.10;99.90
11934;DHT22;6026;48.784;9.198;2024-01-15T05:40:34;-0.10;99.90
11934;DHT22;6026;48.784;9.198;2024-01-15T05:43:00;-0.10;99.90
11934;DHT22;6026;48.784;9.198;2024-01-15T05:45:30;-0.10;99.90
11934;DHT22;6026;48.784;9.198;2024-01-15T05:47:55;-0.10;99.90
11934;DHT22;6026;48.784;9.198;2024-01-15T05:50:21;-0.10;99.90
11934;DHT22;6026;48.784;9.198;2024-01-15T05:52:47;-0.10;99.90
11934;DHT22;6026;48.784;9.198;2024-01-15T05:55:13;-0.10;99.90
11934;DHT22;6026;48.784;9.198;2024-01-15T05:57:39;-0.10;99.90
11934;DHT22;6026;48.784;9.198;2024-01-15T06:00:05;0.00;99.90
11934;DHT22;6026;48.784;9.198;2024-01-15T06:02:30;0.00;99.90
11934;DHT22;6026;48.784;9.198;2024-01-15T06:04:56;0.00;99.90
11934;DHT22;6026;48.784;9.198;2024-01-15T06:07:22;0.00;99.90
11934;DHT22;6026;48.784;9.198;2024-01-15T06:09:48;0.00;99.90
11934;DHT22;6026;48.784;9.198;2024-01-15T06:12:14;0.10;99.90
11934;DHT22;6026;48.784;9.198;2024-01-15T06:14:39;0.00;99.90
11934;DHT22;6026;48.784;9.198;2024-01-15T06:17:06;0.00;99.90
11934;DHT22;6026;48.784;9.198;2024-01-15T06:19:32;0.00;99.90
11934;DHT22;6026;48.784;9.198;2024-01-15T06:21:57;0.00;99.90
11934;DHT22;6026;48.784;9.198;2024-01-15T06:24:23;0.00;99.90
11934;DHT22;6026;48.784;9.198;2024-01-15T06:26:48;0.00;99.90
11934;DHT22;6026;48.784;9.198;2024-01-15T06:29:14;0.00;99.90
11934;DHT22;6026;48.784;9.198;2024-01-15T06:31:39;0.00;99.90
11934;DHT22;6026;48.784;9.198;2024-01-15T06:34:05;0.00;99.90
11934;DHT22;6026;48.784;9.198;2024-01-15T06:36:30;0.00;99.90
11934;DHT22;6026;48.784;9.198;2024-01-15T06:38:56;0.00;99.90
11934;DHT22;6026;48.784;9.198;2024-01-15T06:41:21;0.00;99.90
11934;DHT22;6026;48.784;9.198;2024-01-15T06:43:48;0.10;99.90
11934;DHT22;6026;48.784;9.198;2024-01-15T06:46:20;0.00;99.90
11934;DHT22;6026;48.784;9.198;2024-01-15T06:48:46;0.00;99.90
11934;DHT22;6026;48.784;9.198;2024-01-15T06:51:11;0.00;99.90
11934;DHT22;6026;48.784;9.198;2024-01-15T06:53:37;0.00;99.90
11934;DHT22;6026;48.784;9.198;2024-01-15T06:56:03;-0.10;99.90
11934;DHT22;6026;48.784;9.198;2024-01-15T06:58:31;0.00;99.90
11934;DHT22;6026;48.784;9.198;2024-01-15T07:00:56;0.00;99.90
11934;DHT22;6026;48.784;9.198;2024-01-15T07:03:23;0.00;99.90
11934;DHT22;6026;48.784;9.198;2024-01-15T07:05:48;0.00;99.90
11934;DHT22;6026;48.784;9.198;2024-01-15T07:08:14;0.00;99.90
11934;DHT22;6026;48.784;9.198;2024-01-15T07:10:40;0.10;99.90
11934;DHT22;6026;48.784;9.198;2024-01-15T07:13:05;0.10;99.90
11934;DHT22;6026;48.784;9.198;2024-01-15T07:15:31;0.20;99.90
11934;DHT22;6026;48.784;9.198;2024-01-15T07:17:56;0.60;99.90
11934;DHT22;6026;48.784;9.198;2024-01-15T07:20:22;0.40;99.90
11934;DHT22;6026;48.784;9.198;2024-01-15T07:22:47;0.40;99.90
11934;DHT22;6026;48.784;9.198;2024-01-15T07:25:13;0.60;99.90
11934;DHT22;6026;48.784;9.198;2024-01-15T07:27:39;0.50;99.90
11934;DHT22;6026;48.784;9.198;2024-01-15T07:30:05;0.50;99.90
11934;DHT22;6026;48.784;9.198;2024-01-15T07:32:31;0.40;99.90
11934;DHT22;6026;48.784;9.198;2024-01-15T07:34:57;0.40;99.90
11934;DHT22;6026;48.784;9.198;2024-01-15T07:37:24;0.40;99.90
11934;DHT22;6026;48.784;9.198;2024-01-15T07:39:50;0.30;99.90
11934;DHT22;6026;48.784;9.198;2024-01-15T07:42:16;0.30;99.90
11934;DHT22;6026;48.784;9.198;2024-01-15T07:44:41;0.40;99.90
11934;DHT22;6026;48.784;9.198;2024-01-15T07:47:07;0.40;99.90
11934;DHT22;6026;48.784;9.198;2024-01-15T07:49:34;0.40;99.90
11934;DHT22;6026;48.784;9.198;2024-01-15T07:52:00;0.40;99.90
11934;DHT22;6026;48.784;9.198;2024-01-15T07:54:25;0.30;99.90
11934;DHT22;6026;48.784;9.198;2024-01-15T07:57:01;0.40;99.90
11934;DHT22;6026;48.784;9.198;2024-01-15T07:59:28;0.40;99.90
11934;DHT22;6026;48.784;9.198;2024-01-15T08:01:54;0.40;99.90
11934;DHT22;6026;48.784;9.198;2024-01-15T08:04:20;0.40;99.90
11934;DHT22;6026;48.784;9.198;2024-01-15T08:06:47;0.40;99.90
11934;DHT22;6026;48.784;9.198;2024-01-15T08:09:13;0.50;99.90
11934;DHT22;6026;48.784;9.198;2024-01-15T08:11:42;0.50;99.90
11934;DHT22;6026;48.784;9.198;2024-01-15T08:14:09;0.50;99.90
11934;DHT22;6026;48.784;9.198;2024-01-15T08:16:35;0.50;99.90
11934;DHT22;6026;48.784;9.198;2024-01-15T08:19:01;0.60;99.90
11934;DHT22;6026;48.784;9.198;2024-01-15T08:21:27;0.60;99.90
11934;DHT22;6026;48.784;9.198;2024-01-15T08:23:56;0.60;99.90
11934;DHT22;6026;48.784;9.198;2024-01-15T08:26:22;0.60;99.90
11934;DHT22;6026;48.784;9.198;2024-01-15T08:28:48;0.60;99.90
11934;DHT22;6026;48.784;9.198;2024-01-15T08:31:13;0.60;99.90
11934;DHT22;6026;48.784;9.198;2024-01-15T08:33:39;0.70;99.90
11934;DHT22;6026;48.784;9.198;2024-01-15T08:36:04;0.70;99.90
11934;DHT22;6026;48.784;9.198;2024-01-15T08:38:31;0.70;99.90
11934;DHT22;6026;48.784;9.198;2024-01-15T08:40:56;0.70;99.90
11934;DHT22;6026;48.784;9.198;2024-01-15T08:43:24;0.80;99.90
11934;DHT22;6026;48.784;9.198;2024-01-15T08:45:50;0.80;99.90
11934;DHT22;6026;48.784;9.198;2024-01-15T08:48:16;0.90;99.90
11934;DHT22;6026;48.784;9.198;2024-01-15T08:50:42;1.00;99.90
11934;DHT22;6026;48.784;9.198;2024-01-15T08:53:08;1.00;99.90
11934;DHT22;6026;48.784;9.198;2024-01-15T08:55:33;1.00;99.90
11934;DHT22;6026;48.784;9.198;2024-01-15T08:57:59;1.10;99.90
11934;DHT22;6026;48.784;9.198;2024-01-15T09:00:24;1.10;99.90
11934;DHT22;6026;48.784;9.198;2024-01-15T09:02:50;1.10;99.90
11934;DHT22;6026;48.784;9.198;2024-01-15T09:05:15;1.10;99.90
11934;DHT22;6026;48.784;9.198;2024-01-15T09:07:41;1.10;99.90
11934;DHT22;6026;48.784;9.198;2024-01-15T09:10:07;1.20;99.90
11934;DHT22;6026;48.784;9.198;2024-01-15T09:12:33;1.20;99.90
11934;DHT22;6026;48.784;9.198;2024-01-15T09:14:58;1.20;99.90
11934;DHT22;6026;48.784;9.198;2024-01-15T09:17:24;1.30;99.90
11934;DHT22;6026;48.784;9.198;2024-01-15T09:19:49;1.30;99.90
11934;DHT22;6026;48.784;9.198;2024-01-15T09:22:15;1.30;99.90
11934;DHT22;6026;48.784;9.198;2024-01-15T09:24:44;1.30;99.90
11934;DHT22;6026;48.784;9.198;2024-01-15T09:27:10;1.30;99.90
11934;DHT22;6026;48.784;9.198;2024-01-15T09:29:35;1.40;99.90
11934;DHT22;6026;48.784;9.198;2024-01-15T09:32:05;1.40;99.90
11934;DHT22;6026;48.784;9.198;2024-01-15T09:34:32;1.50;99.90
11934;DHT22;6026;48.784;9.198;2024-01-15T09:36:57;1.50;99.90
11934;DHT22;6026;48.784;9.198;2024-01-15T09:39:23;1.50;99.90
11934;DHT22;6026;48.784;9.198;2024-01-15T09:41:49;1.60;99.90
11934;DHT22;6026;48.784;9.198;2024-01-15T09:44:15;1.60;99.90
11934;DHT22;6026;48.784;9.198;2024-01-15T09:46:41;1.70;99.90
11934;DHT22;6026;48.784;9.198;2024-01-15T09:49:10;1.70;99.90
11934;DHT22;6026;48.784;9.198;2024-01-15T09:51:35;1.80;99.90
11934;DHT22;6026;48.784;9.198;2024-01-15T09:54:02;1.80;99.90
11934;DHT22;6026;48.784;9.198;2024-01-15T09:56:30;1.90;99.90
11934;DHT22;6026;48.784;9.198;2024-01-15T09:58:56;1.90;99.90
11934;DHT22;6026;48.784;9.198;2024-01-15T10:01:23;1.90;99.90
11934;DHT22;6026;48.784;9.198;2024-01-15T10:03:50;1.90;99.90
11934;DHT22;6026;48.784;9.198;2024-01-15T10:06:16;1.90;99.90
11934;DHT22;6026;48.784;9.198;2024-01-15T10:08:48;1.90;99.90
11934;DHT22;6026;48.784;9.198;2024-01-15T10:11:15;1.90;99.90
11934;DHT22;6026;48.784;9.198;2024-01-15T10:13:43;1.90;99.90
11934;DHT22;6026;48.784;9.198;2024-01-15T10:16:09;1.90;99.90
11934;DHT22;6026;48.784;9.198;2024-01-15T10:18:34;1.90;99.90
11934;DHT22;6026;48.784;9.198;2024-01-15T10:21:03;1.90;99.90
11934;DHT22;6026;48.784;9.198;2024-01-15T10:23:29;1.90;99.90
11934;DHT22;6026;48.784;9.198;2024-01-15T10:25:57;1.90;99.90
11934;DHT22;6026;48.784;9.198;2024-01-15T10:28:26;1.90;99.90
11934;DHT22;6026;48.784;9.198;2024-01-15T10:30:54;1.90;99.90
11934;DHT22;6026;48.784;9.198;2024-01-15T10:33:22;2.00;99.90
11934;DHT22;6026;48.784;9.198;2024-01-15T10:35:59;2.00;99.90
11934;DHT22;6026;48.784;9.198;2024-01-15T10:38:25;1.90;99.90
11934;DHT22;6026;48.784;9.198;2024-01-15T10:40:52;1.90;99.90
11934;DHT22;6026;48.784;9.198;2024-01-15T10:43:18;2.00;99.90
11934;DHT22;6026;48.784;9.198;2024-01-15T10:45:47;2.00;99.90
11934;DHT22;6026;48.784;9.198;2024-01-15T10:48:14;2.00;99.90
11934;DHT22;6026;48.784;9.198;2024-01-15T10:50:41;1.90;99.90
11934;DHT22;6026;48.784;9.198;2024-01-15T10:53:08;2.00;99.90
11934;DHT22;6026;48.784;9.198;2024-01-15T10:55:35;2.00;99.90
11934;DHT22;6026;48.784;9.198;2024-01-15T10:58:03;2.00;99.90
11934;DHT22;6026;48.784;9.198;2024-01-15T11:00:29;2.10;99.90
11934;DHT22;6026;48.784;9.198;2024-01-15T11:02:55;2.10;99.90
11934;DHT22;6026;48.784;9.198;2024-01-15T11:05:22;2.10;99.90
11934;DHT22;6026;48.784;9.198;2024-01-15T11:07:50;2.10;99.90
11934;DHT22;6026;48.784;9.198;2024-01-15T11:10:52;2.20;99.90
11934;DHT22;6026;48.784;9.198;2024-01-15T11:13:22;2.30;99.90
11934;DHT22;6026;48.784;9.198;2024-01-15T11:16:06;2.20;99.90
11934;DHT22;6026;48.784;9.198;2024-01-15T11:18:36;2.10;99.90
11934;DHT22;6026;48.784;9.198;2024-01-15T11:29:01;1.80;99.90
11934;DHT22;6026;48.784;9.198;2024-01-15T11:34:03;1.80;99.90
11934;DHT22;6026;48.784;9.198;2024-01-15T11:41:57;1.90;99.90
11934;DHT22;6026;48.784;9.198;2024-01-15T11:44:23;1.80;99.90
11934;DHT22;6026;48.784;9.198;2024-01-15T11:46:59;1.90;99.90
11934;DHT22;6026;48.784;9.198;2024-01-15T11:52:20;1.80;99.90
11934;DHT22;6026;48.784;9.198;2024-01-15T11:57:40;1.60;99.90
11934;DHT22;6026;48.784;9.198;2024-01-15T12:00:07;1.50;99.90
11934;DHT22;6026;48.784;9.198;2024-01-15T12:02:34;1.50;99.90
11934;DHT22;6026;48.784;9.198;2024-01-15T12:04:59;1.50;99.90
11934;DHT22;6026;48.784;9.198;2024-01-15T12:07:25;1.50;99.90
11934;DHT22;6026;48.784;9.198;2024-01-15T12:09:50;1.50;99.90
11934;DHT22;6026;48.784;9.198;2024-01-15T12:12:46;1.50;99.90
11934;DHT22;6026;48.784;9.198;2024-01-15T12:15:13;1.50;99.90
11934;DHT22;6026;48.784;9.198;2024-01-15T12:17:39;1.60;99.90
11934;DHT22;6026;48.784;9.198;2024-01-15T12:20:05;1.60;99.90
11934;DHT22;6026;48.784;9.198;2024-01-15T12:22:31;1.60;99.90
11934;DHT22;6026;48.784;9.198;2024-01-15T12:24:57;1.50;99.90
11934;DHT22;6026;48.784;9.198;2024-01-15T12:27:23;1.40;99.90
11934;DHT22;6026;48.784;9.198;2024-01-15T12:29:49;1.30;99.90
11934;DHT22;6026;48.784;9.198;2024-01-15T12:32:14;1.20;99.90
11934;DHT22;6026;48.784;9.198;2024-01-15T12:34:40;1.10;99.90
11934;DHT22;6026;48.784;9.198;2024-01-15T12:37:07;1.10;99.90
11934;DHT22;6026;48.784;9.198;2024-01-15T12:39:34;1.00;99.90
11934;DHT22;6026;48.784;9.198;2024-01-15T12:42:01;0.90;99.90
11934;DHT22;6026;48.784;9.198;2024-01-15T12:44:28;0.80;99.90
11934;DHT22;6026;48.784;9.198;2024-01-15T12:46:53;0.80;99.90
11934;DHT22;6026;48.784;9.198;2024-01-15T12:49:21;0.80;99.90
11934;DHT22;6026;48.784;9.198;2024-01-15T12:52:13;0.70;99.90
11934;DHT22;6026;48.784;9.198;2024-01-15T12:54:38;0.70;99.90
11934;DHT22;6026;48.784;9.198;2024-01-15T12:57:04;0.60;99.90
11934;DHT22;6026;48.784;9.198;2024-01-15T12:59:29;0.60;99.90
11934;DHT22;6026;48.784;9.198;2024-01-15T13:01:55;0.60;99.90
11934;DHT22;6026;48.784;9.198;2024-01-15T13:04:21;0.60;99.90
11934;DHT22;6026;48.784;9.198;2024-01-15T13:06:47;0.60;99.90
11934;DHT22;6026;48.784;9.198;2024-01-15T13:09:13;0.70;99.90
11934;DHT22;6026;48.784;9.198;2024-01-15T13:11:39;0.70;99.90
11934;DHT22;6026;48.784;9.198;2024-01-15T13:14:05;0.80;99.90
11934;DHT22;6026;48.784;9.198;2024-01-15T13:16:31;0.80;99.90
11934;DHT22;6026;48.784;9.198;2024-01-15T13:18:56;0.80;99.90
11934;DHT22;6026;48.784;9.198;2024-01-15T13:21:22;0.70;99.90
11934;DHT22;6026;48.784;9.198;2024-01-15T13:23:48;0.70;99.90
11934;DHT22;6026;48.784;9.198;2024-01-15T13:26:13;0.70;99.90
11934;DHT22;6026;48.784;9.198;2024-01-15T13:28:39;0.70;99.90
11934;DHT22;6026;48.784;9.198;2024-01-15T13:31:05;0.70;99.90
11934;DHT22;6026;48.784;9.198;2024-01-15T13:33:31;0.70;99.90
11934;DHT22;6026;48.784;9.198;2024-01-15T13:35:56;0.70;99.90
11934;DHT22;6026;48.784;9.198;2024-01-15T13:38:22;0.70;99.90
11934;DHT22;6026;48.784;9.198;2024-01-15T13:40:47;0.70;99.90
11934;DHT22;6026;48.784;9.198;2024-01-15T13:43:13;0.70;99.90
11934;DHT22;6026;48.784;9.198;2024-01-15T13:45:41;0.70;99.90
11934;DHT22;6026;48.784;9.198;2024-01-15T13:48:06;0.80;99.90
11934;DHT22;6026;48.784;9.198;2024-01-15T13:50:36;0.70;99.90
11934;DHT22;6026;48.784;9.198;2024-01-15T13:53:03;0.80;99.90
11934;DHT22;6026;48.784;9.198;2024-01-15T13:55:29;0.70;99.90
11934;DHT22;6026;48.784;9.198;2024-01-15T13:57:55;0.70;99.90
11934;DHT22;6026;48.784;9.198;2024-01-15T14:00:21;0.70;99.90
11934;DHT22;6026;48.784;9.198;2024-01-15T14:02:47;0.70;99.90
11934;DHT22;6026;48.784;9.198;2024-01-15T14:05:13;0.70;99.90
11934;DHT22;6026;48.784;9.198;2024-01-15T14:07:38;0.70;99.90
11934;DHT22;6026;48.784;9.198;2024-01-15T14:10:05;0.60;99.90
11934;DHT22;6026;48.784;9.198;2024-01-15T14:12:33;0.70;99.90
11934;DHT22;6026;48.784;9.198;2024-01-15T14:14:59;0.70;99.90
11934;DHT22;6026;48.784;9.198;2024-01-15T14:17:24;0.70;99.90
11934;DHT22;6026;48.784;9.198;2024-01-15T14:19:50;0.70;99.90
11934;DHT22;6026;48.784;9.198;2024-01-15T14:22:16;0.70;99.90
11934;DHT22;6026;48.784;9.198;2024-01-15T14:24:41;0.70;99.90
11934;DHT22;6026;48.784;9.198;2024-01-15T14:27:07;0.70;99.90
11934;DHT22;6026;48.784;9.198;2024-01-15T14:29:33;0.80;99.90
11934;DHT22;6026;48.784;9.198;2024-01-15T14:31:58;0.80;99.90
11934;DHT22;6026;48.784;9.198;2024-01-15T14:34:25;0.80;99.90
11934;DHT22;6026;48.784;9.198;2024-01-15T14:36:52;0.80;99.90
11934;DHT22;6026;48.784;9.198;2024-01-15T14:39:27;0.80;99.90
11934;DHT22;6026;48.784;9.198;2024-01-15T14:41:52;0.70;99.90
11934;DHT22;6026;48.784;9.198;2024-01-15T14:44:20;0.70;99.90
11934;DHT22;6026;48.784;9.198;2024-01-15T14:46:46;0.60;99.90
11934;DHT22;6026;48.784;9.198;2024-01-15T14:49:12;0.60;99.90
11934;DHT22;6026;48.784;9.198;2024-01-15T14:51:38;0.60;99.90
11934;DHT22;6026;48.784;9.198;2024-01-15T14:54:04;0.50;99.90
11934;DHT22;6026;48.784;9.198;2024-01-15T14:56:29;0.50;99.90
11934;DHT22;6026;48.784;9.198;2024-01-15T14:58:55;0.40;99.90
11934;DHT22;6026;48.784;9.198;2024-01-15T15:01:20;0.40;99.90
11934;DHT22;6026;48.784;9.198;2024-01-15T15:03:48;0.40;99.90
11934;DHT22;6026;48.784;9.198;2024-01-15T15:06:14;0.40;99.90
11934;DHT22;6026;48.784;9.198;2024-01-15T15:08:39;0.30;99.90
11934;DHT22;6026;48.784;9.198;2024-01-15T15:11:06;0.30;99.90
11934;DHT22;6026;48.784;9.198;2024-01-15T15:13:31;0.30;99.90
11934;DHT22;6026;48.784;9.198;2024-01-15T15:15:57;0.30;99.90
11934;DHT22;6026;48.784;9.198;2024-01-15T15:18:22;0.20;99.90
11934;DHT22;6026;48.784;9.198;2024-01-15T15:20:48;0.20;99.90
11934;DHT22;6026;48.784;9.198;2024-01-15T15:23:15;0.20;99.90
11934;DHT22;6026;48.784;9.198;2024-01-15T15:25:41;0.30;99.90
11934;DHT22;6026;48.784;9.198;2024-01-15T15:28:08;0.30;99.90
11934;DHT22;6026;48.784;9.198;2024-01-15T15:30:35;0.30;99.90
11934;DHT22;6026;48.784;9.198;2024-01-15T15:33:00;0.20;99.90
11934;DHT22;6026;48.784;9.198;2024-01-15T15:35:26;0.30;99.90
11934;DHT22;6026;48.784;9.198;2024-01-15T15:37:51;0.30;99.90
11934;DHT22;6026;48.784;9.198;2024-01-15T15:40:17;0.20;99.90
11934;DHT22;6026;48.784;9.198;2024-01-15T15:42:43;0.30;99.90
11934;DHT22;6026;48.784;9.198;2024-01-15T15:45:09;0.30;99.90
11934;DHT22;6026;48.784;9.198;2024-01-15T15:47:37;0.30;99.90
11934;DHT22;6026;48.784;9.198;2024-01-15T15:50:03;0.20;99.90
11934;DHT22;6026;48.784;9.198;2024-01-15T15:52:29;0.30;99.90
11934;DHT22;6026;48.784;9.198;2024-01-15T15:54:55;0.20;99.90
11934;DHT22;6026;48.784;9.198;2024-01-15T15:57:21;0.20;99.90
11934;DHT22;6026;48.784;9.198;2024-01-15T15:59:46;0.20;99.90
11934;DHT22;6026;48.784;9.198;2024-01-15T16:02:12;0.20;99.90
11934;DHT22;6026;48.784;9.198;2024-01-15T16:04:38;0.20;99.90
11934;DHT22;6026;48.784;9.198;2024-01-15T16:07:03;0.20;99.90
11934;DHT22;6026;48.784;9.198;2024-01-15T16:09:33;0.20;99.90
11934;DHT22;6026;48.784;9.198;2024-01-15T16:11:59;0.20;99.90